Stuart, VA

8:33 AM EST on January 30, 2015 (GMT -0500)
Blue Ridge | Change Station
CLOSE
Current Station
Airport
Location: Martinsville,
Elevation: 942 ft
Nearby Weather Stations
Active Advisory: Wind Advisory Active Notice: Public Information Statement

Elev 942 ft 36.63 °N, 80.01 °W | Updated 18 minutes ago

Overcast
Overcast
39 °F
Feels Like 31 °F
N
14
Wind Variable Wind from NW
Gusts 20 mph

Today
High -- | Low -- °F
--% Chance of Precip.
Yesterday
High -- | Low -- °F
Precip. -- in
7:24 AM 5:44 PM
Waxing Gibbous, 82% visible
Pressure 30.11 in
Visibility 10.0 miles
Clouds Overcast 4500 ft
Windchill 31 °F
Dew Point 22 °F
Humidity 51%
Rainfall 0.00 in
Snow Depth Not available.
UV 0 out of 12
Pollen 3.00 out of 12
Air Quality Not available.
Flu Activity Not available.
METAR KMTV 301315Z AUTO 32012G17KT 10SM OVC045 04/M05 A3011 RMK AO2 T00381054

More Conditions Fewer Conditions

Pressure 30.11 in
Visibility 10.0 miles
Clouds Overcast 4500 ft
Windchill 31 °F
Dew Point 22 °F
Humidity 51%
Rainfall 0.00 in
Snow Depth Not available.
UV 0 out of 12
Pollen 3.00 out of 12
Air Quality Not available.
Flu Activity Not available.
METAR KMTV 301315Z AUTO 32012G17KT 10SM OVC045 04/M05 A3011 RMK AO2 T00381054

More Conditions Fewer Conditions

10-Day Weather Forecast

Almanac

Astronomy

Jan. 30, 2015 Rise Set
Actual Time
Civil Twilight
Nautical Twilight
Astronomical Twilight
Moon
Length of Visible Light
Length of Day
Tomorrow will be .
, % of the Moon is Illuminated

Today's Extremes

State Highs State Lows

Community

WunderPhotos

Upload Photos

1,791,751 photos uploaded!

WunderBlogs® & News

Nearby

Air Quality

  Air Quality AQ Index Pollutant
Not available.

Snow Depth

Station Depth Elevation

Earthquake Activity

City Distance Mag. Time & Date
Minimum magnitude displayed is 2.5.

Coastal Water Temperatures

Place Temperature

Nearby Weather Stations